sensor_id;sensor_type;location;lat;lon;timestamp;P1;durP1;ratioP1;P2;durP2;ratioP2
4202;SDS011;2115;51.038;7.006;2023-06-22T00:00:56;7.10;;;4.30;;
4202;SDS011;2115;51.038;7.006;2023-06-22T00:03:23;10.93;;;4.30;;
4202;SDS011;2115;51.038;7.006;2023-06-22T00:05:51;5.90;;;3.93;;
4202;SDS011;2115;51.038;7.006;2023-06-22T00:08:17;10.53;;;4.53;;
4202;SDS011;2115;51.038;7.006;2023-06-22T00:10:43;13.83;;;4.57;;
4202;SDS011;2115;51.038;7.006;2023-06-22T00:13:08;10.73;;;5.30;;
4202;SDS011;2115;51.038;7.006;2023-06-22T00:15:35;6.87;;;4.30;;
4202;SDS011;2115;51.038;7.006;2023-06-22T00:18:01;12.67;;;4.80;;
4202;SDS011;2115;51.038;7.006;2023-06-22T00:20:27;14.23;;;4.93;;
4202;SDS011;2115;51.038;7.006;2023-06-22T00:22:54;10.40;;;4.50;;
4202;SDS011;2115;51.038;7.006;2023-06-22T00:25:20;16.90;;;4.73;;
4202;SDS011;2115;51.038;7.006;2023-06-22T00:27:45;20.13;;;5.10;;
4202;SDS011;2115;51.038;7.006;2023-06-22T00:30:11;8.33;;;3.83;;
4202;SDS011;2115;51.038;7.006;2023-06-22T00:32:37;10.73;;;4.27;;
4202;SDS011;2115;51.038;7.006;2023-06-22T00:35:02;9.20;;;4.33;;
4202;SDS011;2115;51.038;7.006;2023-06-22T00:37:29;10.27;;;4.23;;
4202;SDS011;2115;51.038;7.006;2023-06-22T00:39:55;6.27;;;3.93;;
4202;SDS011;2115;51.038;7.006;2023-06-22T00:42:21;6.83;;;3.87;;
4202;SDS011;2115;51.038;7.006;2023-06-22T00:44:47;7.90;;;3.80;;
4202;SDS011;2115;51.038;7.006;2023-06-22T00:47:13;14.27;;;4.40;;
4202;SDS011;2115;51.038;7.006;2023-06-22T00:49:40;14.83;;;5.00;;
4202;SDS011;2115;51.038;7.006;2023-06-22T00:52:06;12.13;;;4.20;;
4202;SDS011;2115;51.038;7.006;2023-06-22T00:54:42;11.53;;;4.50;;
4202;SDS011;2115;51.038;7.006;2023-06-22T00:57:11;11.90;;;3.80;;
4202;SDS011;2115;51.038;7.006;2023-06-22T00:59:41;17.67;;;5.00;;
4202;SDS011;2115;51.038;7.006;2023-06-22T01:02:07;6.93;;;3.60;;
4202;SDS011;2115;51.038;7.006;2023-06-22T01:04:36;9.80;;;4.40;;
4202;SDS011;2115;51.038;7.006;2023-06-22T01:07:05;5.27;;;3.47;;
4202;SDS011;2115;51.038;7.006;2023-06-22T01:09:38;22.97;;;4.70;;
4202;SDS011;2115;51.038;7.006;2023-06-22T01:12:12;6.53;;;3.40;;
4202;SDS011;2115;51.038;7.006;2023-06-22T01:14:40;5.83;;;3.90;;
4202;SDS011;2115;51.038;7.006;2023-06-22T01:17:07;7.40;;;3.93;;
4202;SDS011;2115;51.038;7.006;2023-06-22T01:22:21;12.33;;;4.47;;
4202;SDS011;2115;51.038;7.006;2023-06-22T01:25:04;22.90;;;4.80;;
4202;SDS011;2115;51.038;7.006;2023-06-22T01:30:06;25.70;;;5.30;;
4202;SDS011;2115;51.038;7.006;2023-06-22T01:32:35;10.60;;;3.77;;
4202;SDS011;2115;51.038;7.006;2023-06-22T01:35:03;5.80;;;3.60;;
4202;SDS011;2115;51.038;7.006;2023-06-22T01:37:30;8.63;;;3.63;;
4202;SDS011;2115;51.038;7.006;2023-06-22T01:39:58;8.03;;;3.47;;
4202;SDS011;2115;51.038;7.006;2023-06-22T01:42:24;13.67;;;4.33;;
4202;SDS011;2115;51.038;7.006;2023-06-22T01:44:50;15.33;;;4.70;;
4202;SDS011;2115;51.038;7.006;2023-06-22T01:47:17;13.17;;;4.10;;
4202;SDS011;2115;51.038;7.006;2023-06-22T01:49:42;6.13;;;3.23;;
4202;SDS011;2115;51.038;7.006;2023-06-22T01:52:08;6.50;;;3.17;;
4202;SDS011;2115;51.038;7.006;2023-06-22T01:54:34;16.13;;;4.30;;
4202;SDS011;2115;51.038;7.006;2023-06-22T01:56:59;7.57;;;3.90;;
4202;SDS011;2115;51.038;7.006;2023-06-22T01:59:25;9.90;;;4.20;;
4202;SDS011;2115;51.038;7.006;2023-06-22T02:02:06;8.20;;;3.40;;
4202;SDS011;2115;51.038;7.006;2023-06-22T02:04:38;9.37;;;4.87;;
4202;SDS011;2115;51.038;7.006;2023-06-22T02:07:13;20.63;;;4.67;;
4202;SDS011;2115;51.038;7.006;2023-06-22T02:09:42;8.10;;;3.63;;
4202;SDS011;2115;51.038;7.006;2023-06-22T02:12:10;16.80;;;5.00;;
4202;SDS011;2115;51.038;7.006;2023-06-22T02:14:36;8.00;;;3.80;;
4202;SDS011;2115;51.038;7.006;2023-06-22T02:17:03;7.80;;;3.80;;
4202;SDS011;2115;51.038;7.006;2023-06-22T02:19:32;8.40;;;3.47;;
4202;SDS011;2115;51.038;7.006;2023-06-22T02:22:00;14.20;;;4.53;;
4202;SDS011;2115;51.038;7.006;2023-06-22T02:24:26;7.53;;;4.03;;
4202;SDS011;2115;51.038;7.006;2023-06-22T02:26:51;6.40;;;3.77;;
4202;SDS011;2115;51.038;7.006;2023-06-22T02:29:17;8.30;;;4.00;;
4202;SDS011;2115;51.038;7.006;2023-06-22T02:31:42;9.63;;;4.10;;
4202;SDS011;2115;51.038;7.006;2023-06-22T02:34:08;7.63;;;3.70;;
4202;SDS011;2115;51.038;7.006;2023-06-22T02:36:33;9.33;;;4.10;;
4202;SDS011;2115;51.038;7.006;2023-06-22T02:38:59;6.90;;;3.97;;
4202;SDS011;2115;51.038;7.006;2023-06-22T02:41:26;6.10;;;3.80;;
4202;SDS011;2115;51.038;7.006;2023-06-22T02:43:51;17.27;;;5.00;;
4202;SDS011;2115;51.038;7.006;2023-06-22T02:46:17;8.33;;;4.10;;
4202;SDS011;2115;51.038;7.006;2023-06-22T02:48:42;7.23;;;3.63;;
4202;SDS011;2115;51.038;7.006;2023-06-22T02:51:08;8.70;;;3.83;;
4202;SDS011;2115;51.038;7.006;2023-06-22T02:53:33;10.23;;;4.03;;
4202;SDS011;2115;51.038;7.006;2023-06-22T02:55:59;5.97;;;3.63;;
4202;SDS011;2115;51.038;7.006;2023-06-22T02:58:26;11.13;;;3.80;;
4202;SDS011;2115;51.038;7.006;2023-06-22T03:00:52;6.93;;;4.50;;
4202;SDS011;2115;51.038;7.006;2023-06-22T03:03:21;9.00;;;4.23;;
4202;SDS011;2115;51.038;7.006;2023-06-22T03:05:46;8.67;;;4.13;;
4202;SDS011;2115;51.038;7.006;2023-06-22T03:08:11;10.87;;;4.80;;
4202;SDS011;2115;51.038;7.006;2023-06-22T03:10:37;11.63;;;4.77;;
4202;SDS011;2115;51.038;7.006;2023-06-22T03:13:02;11.13;;;4.63;;
4202;SDS011;2115;51.038;7.006;2023-06-22T03:15:28;6.13;;;3.80;;
4202;SDS011;2115;51.038;7.006;2023-06-22T03:17:57;7.10;;;4.63;;
4202;SDS011;2115;51.038;7.006;2023-06-22T03:20:23;7.33;;;4.73;;
4202;SDS011;2115;51.038;7.006;2023-06-22T03:22:48;8.23;;;4.33;;
4202;SDS011;2115;51.038;7.006;2023-06-22T03:25:14;8.67;;;4.93;;
4202;SDS011;2115;51.038;7.006;2023-06-22T03:27:40;6.23;;;4.07;;
4202;SDS011;2115;51.038;7.006;2023-06-22T03:30:06;6.77;;;4.47;;
4202;SDS011;2115;51.038;7.006;2023-06-22T03:32:33;6.07;;;4.03;;
4202;SDS011;2115;51.038;7.006;2023-06-22T03:34:58;7.23;;;4.23;;
4202;SDS011;2115;51.038;7.006;2023-06-22T03:37:24;7.73;;;4.27;;
4202;SDS011;2115;51.038;7.006;2023-06-22T03:39:50;6.57;;;4.00;;
4202;SDS011;2115;51.038;7.006;2023-06-22T03:42:17;6.37;;;3.60;;
4202;SDS011;2115;51.038;7.006;2023-06-22T03:44:42;11.87;;;4.17;;
4202;SDS011;2115;51.038;7.006;2023-06-22T03:47:07;8.80;;;4.40;;
4202;SDS011;2115;51.038;7.006;2023-06-22T03:49:33;4.67;;;3.30;;
4202;SDS011;2115;51.038;7.006;2023-06-22T03:52:00;8.47;;;3.73;;
4202;SDS011;2115;51.038;7.006;2023-06-22T03:54:27;5.20;;;3.70;;
4202;SDS011;2115;51.038;7.006;2023-06-22T03:56:56;10.90;;;3.37;;
4202;SDS011;2115;51.038;7.006;2023-06-22T03:59:22;7.57;;;3.67;;
4202;SDS011;2115;51.038;7.006;2023-06-22T04:01:48;6.40;;;4.17;;
4202;SDS011;2115;51.038;7.006;2023-06-22T04:04:13;13.87;;;4.33;;
4202;SDS011;2115;51.038;7.006;2023-06-22T04:06:39;8.30;;;3.63;;
4202;SDS011;2115;51.038;7.006;2023-06-22T04:09:05;9.37;;;3.73;;
4202;SDS011;2115;51.038;7.006;2023-06-22T04:11:31;8.73;;;3.97;;
4202;SDS011;2115;51.038;7.006;2023-06-22T04:13:56;5.40;;;4.00;;
4202;SDS011;2115;51.038;7.006;2023-06-22T04:16:21;8.50;;;4.23;;
4202;SDS011;2115;51.038;7.006;2023-06-22T04:18:47;5.97;;;3.50;;
4202;SDS011;2115;51.038;7.006;2023-06-22T04:21:13;7.60;;;3.90;;
4202;SDS011;2115;51.038;7.006;2023-06-22T04:23:38;8.83;;;4.07;;
4202;SDS011;2115;51.038;7.006;2023-06-22T04:26:03;5.43;;;3.90;;
4202;SDS011;2115;51.038;7.006;2023-06-22T04:28:29;7.90;;;3.97;;
4202;SDS011;2115;51.038;7.006;2023-06-22T04:30:54;16.53;;;4.87;;
4202;SDS011;2115;51.038;7.006;2023-06-22T04:33:23;11.03;;;3.53;;
4202;SDS011;2115;51.038;7.006;2023-06-22T04:35:48;9.30;;;4.20;;
4202;SDS011;2115;51.038;7.006;2023-06-22T04:38:14;9.70;;;4.70;;
4202;SDS011;2115;51.038;7.006;2023-06-22T04:40:39;18.20;;;4.03;;
4202;SDS011;2115;51.038;7.006;2023-06-22T04:43:05;10.67;;;4.80;;
4202;SDS011;2115;51.038;7.006;2023-06-22T04:45:31;6.60;;;4.27;;
4202;SDS011;2115;51.038;7.006;2023-06-22T04:47:58;10.10;;;4.30;;
4202;SDS011;2115;51.038;7.006;2023-06-22T04:50:23;5.97;;;3.60;;
4202;SDS011;2115;51.038;7.006;2023-06-22T04:52:49;7.30;;;5.30;;
4202;SDS011;2115;51.038;7.006;2023-06-22T04:55:15;7.43;;;4.63;;
4202;SDS011;2115;51.038;7.006;2023-06-22T04:57:43;6.67;;;4.40;;
4202;SDS011;2115;51.038;7.006;2023-06-22T05:00:14;9.10;;;4.70;;
4202;SDS011;2115;51.038;7.006;2023-06-22T05:02:43;9.63;;;4.83;;
4202;SDS011;2115;51.038;7.006;2023-06-22T05:05:10;7.90;;;4.20;;
4202;SDS011;2115;51.038;7.006;2023-06-22T05:07:38;32.93;;;7.10;;
4202;SDS011;2115;51.038;7.006;2023-06-22T05:10:11;15.20;;;5.03;;
4202;SDS011;2115;51.038;7.006;2023-06-22T05:12:37;10.13;;;5.20;;
4202;SDS011;2115;51.038;7.006;2023-06-22T05:15:08;12.67;;;5.70;;
4202;SDS011;2115;51.038;7.006;2023-06-22T05:17:35;13.77;;;6.17;;
4202;SDS011;2115;51.038;7.006;2023-06-22T05:20:04;21.07;;;6.50;;
4202;SDS011;2115;51.038;7.006;2023-06-22T05:22:31;16.90;;;7.27;;
4202;SDS011;2115;51.038;7.006;2023-06-22T05:24:57;409.63;;;45.27;;
4202;SDS011;2115;51.038;7.006;2023-06-22T05:27:22;53.93;;;11.57;;
4202;SDS011;2115;51.038;7.006;2023-06-22T05:29:48;14.73;;;7.83;;
4202;SDS011;2115;51.038;7.006;2023-06-22T05:32:16;23.00;;;7.53;;
4202;SDS011;2115;51.038;7.006;2023-06-22T05:34:49;42.70;;;7.97;;
4202;SDS011;2115;51.038;7.006;2023-06-22T05:37:18;13.47;;;6.30;;
4202;SDS011;2115;51.038;7.006;2023-06-22T05:39:46;24.07;;;7.83;;
4202;SDS011;2115;51.038;7.006;2023-06-22T05:42:15;18.10;;;6.97;;
4202;SDS011;2115;51.038;7.006;2023-06-22T05:44:44;13.13;;;6.47;;
4202;SDS011;2115;51.038;7.006;2023-06-22T05:47:13;13.43;;;6.73;;
4202;SDS011;2115;51.038;7.006;2023-06-22T05:49:44;11.67;;;5.83;;
4202;SDS011;2115;51.038;7.006;2023-06-22T05:52:22;10.40;;;6.53;;
4202;SDS011;2115;51.038;7.006;2023-06-22T05:54:51;10.23;;;7.10;;
4202;SDS011;2115;51.038;7.006;2023-06-22T05:57:40;16.80;;;8.00;;
4202;SDS011;2115;51.038;7.006;2023-06-22T06:00:15;9.93;;;6.30;;
4202;SDS011;2115;51.038;7.006;2023-06-22T06:02:44;11.63;;;7.40;;
4202;SDS011;2115;51.038;7.006;2023-06-22T06:05:14;25.20;;;8.60;;
4202;SDS011;2115;51.038;7.006;2023-06-22T06:07:50;10.67;;;7.43;;
4202;SDS011;2115;51.038;7.006;2023-06-22T06:10:21;13.77;;;7.77;;
4202;SDS011;2115;51.038;7.006;2023-06-22T06:12:50;10.27;;;6.83;;
4202;SDS011;2115;51.038;7.006;2023-06-22T06:15:19;20.73;;;8.57;;
4202;SDS011;2115;51.038;7.006;2023-06-22T06:17:48;12.70;;;8.33;;
4202;SDS011;2115;51.038;7.006;2023-06-22T06:20:21;15.03;;;8.10;;
4202;SDS011;2115;51.038;7.006;2023-06-22T06:22:55;18.00;;;8.00;;
4202;SDS011;2115;51.038;7.006;2023-06-22T06:25:21;16.43;;;8.17;;
4202;SDS011;2115;51.038;7.006;2023-06-22T06:27:50;21.23;;;8.97;;
4202;SDS011;2115;51.038;7.006;2023-06-22T06:30:19;10.03;;;7.33;;
4202;SDS011;2115;51.038;7.006;2023-06-22T06:32:48;20.97;;;9.77;;
4202;SDS011;2115;51.038;7.006;2023-06-22T06:35:23;17.53;;;9.10;;
4202;SDS011;2115;51.038;7.006;2023-06-22T06:37:55;12.33;;;9.13;;
4202;SDS011;2115;51.038;7.006;2023-06-22T06:40:56;10.40;;;7.60;;
4202;SDS011;2115;51.038;7.006;2023-06-22T06:43:28;11.47;;;8.30;;
4202;SDS011;2115;51.038;7.006;2023-06-22T06:46:20;20.03;;;9.63;;
4202;SDS011;2115;51.038;7.006;2023-06-22T06:49:04;12.93;;;7.93;;
4202;SDS011;2115;51.038;7.006;2023-06-22T06:51:29;14.37;;;8.27;;
4202;SDS011;2115;51.038;7.006;2023-06-22T06:54:00;12.60;;;8.27;;
4202;SDS011;2115;51.038;7.006;2023-06-22T06:56:29;17.00;;;8.33;;
4202;SDS011;2115;51.038;7.006;2023-06-22T06:59:01;11.90;;;8.07;;
4202;SDS011;2115;51.038;7.006;2023-06-22T07:01:43;14.70;;;8.10;;
4202;SDS011;2115;51.038;7.006;2023-06-22T07:04:11;15.77;;;7.87;;
4202;SDS011;2115;51.038;7.006;2023-06-22T07:06:48;9.73;;;8.07;;
4202;SDS011;2115;51.038;7.006;2023-06-22T07:09:25;15.37;;;8.53;;
4202;SDS011;2115;51.038;7.006;2023-06-22T07:12:04;13.70;;;7.90;;
4202;SDS011;2115;51.038;7.006;2023-06-22T07:14:33;17.83;;;8.37;;
4202;SDS011;2115;51.038;7.006;2023-06-22T07:17:07;17.17;;;8.63;;
4202;SDS011;2115;51.038;7.006;2023-06-22T07:19:34;12.77;;;8.30;;
4202;SDS011;2115;51.038;7.006;2023-06-22T07:22:09;10.57;;;7.77;;
4202;SDS011;2115;51.038;7.006;2023-06-22T07:24:37;11.30;;;7.40;;
4202;SDS011;2115;51.038;7.006;2023-06-22T07:27:09;11.20;;;7.53;;
4202;SDS011;2115;51.038;7.006;2023-06-22T07:29:37;17.23;;;8.70;;
4202;SDS011;2115;51.038;7.006;2023-06-22T07:32:07;15.40;;;8.47;;
4202;SDS011;2115;51.038;7.006;2023-06-22T07:40:54;16.93;;;8.13;;
4202;SDS011;2115;51.038;7.006;2023-06-22T07:44:23;11.60;;;7.80;;
4202;SDS011;2115;51.038;7.006;2023-06-22T07:46:47;11.13;;;7.57;;
4202;SDS011;2115;51.038;7.006;2023-06-22T07:49:19;11.70;;;7.87;;
4202;SDS011;2115;51.038;7.006;2023-06-22T07:57:41;15.33;;;8.27;;
4202;SDS011;2115;51.038;7.006;2023-06-22T08:00:08;15.67;;;7.77;;
4202;SDS011;2115;51.038;7.006;2023-06-22T08:02:46;13.00;;;7.37;;
4202;SDS011;2115;51.038;7.006;2023-06-22T08:05:24;13.27;;;7.47;;
4202;SDS011;2115;51.038;7.006;2023-06-22T08:10:51;18.70;;;7.87;;
4202;SDS011;2115;51.038;7.006;2023-06-22T08:13:51;18.67;;;8.70;;
4202;SDS011;2115;51.038;7.006;2023-06-22T08:16:20;13.00;;;7.53;;
4202;SDS011;2115;51.038;7.006;2023-06-22T08:18:48;11.23;;;7.17;;
4202;SDS011;2115;51.038;7.006;2023-06-22T08:21:16;18.20;;;7.80;;
4202;SDS011;2115;51.038;7.006;2023-06-22T08:23:45;10.93;;;6.70;;
4202;SDS011;2115;51.038;7.006;2023-06-22T08:26:11;20.80;;;7.00;;
4202;SDS011;2115;51.038;7.006;2023-06-22T08:28:36;10.50;;;6.73;;
4202;SDS011;2115;51.038;7.006;2023-06-22T08:31:02;10.77;;;7.20;;
4202;SDS011;2115;51.038;7.006;2023-06-22T08:33:28;19.23;;;7.20;;
4202;SDS011;2115;51.038;7.006;2023-06-22T08:35:55;14.40;;;7.20;;
4202;SDS011;2115;51.038;7.006;2023-06-22T08:38:21;18.90;;;7.30;;
4202;SDS011;2115;51.038;7.006;2023-06-22T08:40:46;19.37;;;8.77;;
4202;SDS011;2115;51.038;7.006;2023-06-22T08:43:12;12.80;;;6.80;;
4202;SDS011;2115;51.038;7.006;2023-06-22T08:45:37;13.50;;;6.80;;
4202;SDS011;2115;51.038;7.006;2023-06-22T08:48:03;15.43;;;7.27;;
4202;SDS011;2115;51.038;7.006;2023-06-22T08:50:29;17.50;;;8.10;;
4202;SDS011;2115;51.038;7.006;2023-06-22T08:52:55;12.00;;;7.83;;
4202;SDS011;2115;51.038;7.006;2023-06-22T08:55:23;17.13;;;8.20;;
4202;SDS011;2115;51.038;7.006;2023-06-22T08:57:49;37.17;;;10.87;;
4202;SDS011;2115;51.038;7.006;2023-06-22T09:00:18;10.70;;;8.47;;
4202;SDS011;2115;51.038;7.006;2023-06-22T09:02:46;17.33;;;7.57;;
4202;SDS011;2115;51.038;7.006;2023-06-22T09:05:12;12.13;;;7.80;;
4202;SDS011;2115;51.038;7.006;2023-06-22T09:07:40;10.97;;;7.90;;
4202;SDS011;2115;51.038;7.006;2023-06-22T09:10:07;14.77;;;7.87;;
4202;SDS011;2115;51.038;7.006;2023-06-22T09:12:38;10.70;;;7.83;;
4202;SDS011;2115;51.038;7.006;2023-06-22T09:15:04;13.80;;;8.03;;
4202;SDS011;2115;51.038;7.006;2023-06-22T09:17:35;15.50;;;7.60;;
4202;SDS011;2115;51.038;7.006;2023-06-22T09:20:02;11.00;;;6.90;;
4202;SDS011;2115;51.038;7.006;2023-06-22T09:22:30;20.10;;;7.88;;
4202;SDS011;2115;51.038;7.006;2023-06-22T09:24:56;10.45;;;7.15;;
4202;SDS011;2115;51.038;7.006;2023-06-22T09:27:22;21.30;;;7.93;;
4202;SDS011;2115;51.038;7.006;2023-06-22T09:29:48;13.10;;;7.65;;
4202;SDS011;2115;51.038;7.006;2023-06-22T09:32:13;15.55;;;7.32;;
4202;SDS011;2115;51.038;7.006;2023-06-22T09:34:39;10.20;;;6.75;;
4202;SDS011;2115;51.038;7.006;2023-06-22T09:37:04;9.63;;;7.35;;
4202;SDS011;2115;51.038;7.006;2023-06-22T09:39:30;13.02;;;6.93;;
4202;SDS011;2115;51.038;7.006;2023-06-22T09:41:57;13.90;;;7.03;;
4202;SDS011;2115;51.038;7.006;2023-06-22T09:44:24;21.30;;;7.70;;
4202;SDS011;2115;51.038;7.006;2023-06-22T09:46:49;12.07;;;7.55;;
4202;SDS011;2115;51.038;7.006;2023-06-22T09:49:14;22.17;;;7.97;;
4202;SDS011;2115;51.038;7.006;2023-06-22T09:51:40;9.45;;;6.05;;
4202;SDS011;2115;51.038;7.006;2023-06-22T09:54:05;15.82;;;6.93;;
4202;SDS011;2115;51.038;7.006;2023-06-22T09:56:30;13.88;;;7.05;;
4202;SDS011;2115;51.038;7.006;2023-06-22T09:58:56;13.52;;;7.28;;
4202;SDS011;2115;51.038;7.006;2023-06-22T10:01:22;11.80;;;6.85;;
4202;SDS011;2115;51.038;7.006;2023-06-22T10:03:47;28.73;;;7.93;;
4202;SDS011;2115;51.038;7.006;2023-06-22T10:06:13;28.63;;;8.68;;
4202;SDS011;2115;51.038;7.006;2023-06-22T10:08:38;9.68;;;6.05;;
4202;SDS011;2115;51.038;7.006;2023-06-22T10:11:05;14.85;;;7.00;;
4202;SDS011;2115;51.038;7.006;2023-06-22T10:13:31;10.50;;;6.53;;
4202;SDS011;2115;51.038;7.006;2023-06-22T10:15:56;9.18;;;6.57;;
4202;SDS011;2115;51.038;7.006;2023-06-22T10:18:22;9.65;;;7.05;;
4202;SDS011;2115;51.038;7.006;2023-06-22T10:20:48;13.13;;;6.60;;
4202;SDS011;2115;51.038;7.006;2023-06-22T10:23:16;18.13;;;7.32;;
4202;SDS011;2115;51.038;7.006;2023-06-22T10:25:41;20.03;;;7.17;;
4202;SDS011;2115;51.038;7.006;2023-06-22T10:28:07;11.60;;;7.53;;
4202;SDS011;2115;51.038;7.006;2023-06-22T10:30:32;15.50;;;8.13;;
4202;SDS011;2115;51.038;7.006;2023-06-22T10:32:57;17.93;;;8.50;;
4202;SDS011;2115;51.038;7.006;2023-06-22T10:35:23;16.80;;;8.30;;
4202;SDS011;2115;51.038;7.006;2023-06-22T10:37:48;17.43;;;9.33;;
4202;SDS011;2115;51.038;7.006;2023-06-22T10:40:14;17.20;;;8.03;;
4202;SDS011;2115;51.038;7.006;2023-06-22T10:42:41;22.17;;;9.43;;
4202;SDS011;2115;51.038;7.006;2023-06-22T10:45:07;17.10;;;9.37;;
4202;SDS011;2115;51.038;7.006;2023-06-22T10:47:33;12.37;;;9.40;;
4202;SDS011;2115;51.038;7.006;2023-06-22T10:49:59;16.73;;;9.90;;
4202;SDS011;2115;51.038;7.006;2023-06-22T10:52:25;25.10;;;10.63;;
4202;SDS011;2115;51.038;7.006;2023-06-22T10:54:50;19.80;;;12.67;;
4202;SDS011;2115;51.038;7.006;2023-06-22T10:57:15;26.43;;;11.93;;
4202;SDS011;2115;51.038;7.006;2023-06-22T10:59:42;16.23;;;11.90;;
4202;SDS011;2115;51.038;7.006;2023-06-22T11:02:07;19.80;;;11.37;;
4202;SDS011;2115;51.038;7.006;2023-06-22T11:04:33;21.40;;;12.80;;
4202;SDS011;2115;51.038;7.006;2023-06-22T11:06:59;27.37;;;12.23;;
4202;SDS011;2115;51.038;7.006;2023-06-22T11:09:24;27.97;;;12.90;;
4202;SDS011;2115;51.038;7.006;2023-06-22T11:11:50;35.67;;;13.50;;
4202;SDS011;2115;51.038;7.006;2023-06-22T11:14:18;20.30;;;13.33;;
4202;SDS011;2115;51.038;7.006;2023-06-22T11:16:44;21.60;;;13.33;;
4202;SDS011;2115;51.038;7.006;2023-06-22T11:19:09;22.57;;;13.83;;
4202;SDS011;2115;51.038;7.006;2023-06-22T11:21:35;25.30;;;14.87;;
4202;SDS011;2115;51.038;7.006;2023-06-22T11:24:00;30.33;;;15.50;;
4202;SDS011;2115;51.038;7.006;2023-06-22T11:26:26;36.20;;;15.97;;
4202;SDS011;2115;51.038;7.006;2023-06-22T11:28:54;25.63;;;16.00;;
4202;SDS011;2115;51.038;7.006;2023-06-22T11:31:19;29.80;;;16.97;;
4202;SDS011;2115;51.038;7.006;2023-06-22T11:33:45;31.37;;;17.43;;
4202;SDS011;2115;51.038;7.006;2023-06-22T11:36:11;30.63;;;16.60;;
4202;SDS011;2115;51.038;7.006;2023-06-22T11:38:37;29.13;;;15.67;;
4202;SDS011;2115;51.038;7.006;2023-06-22T11:41:05;28.70;;;15.07;;
4202;SDS011;2115;51.038;7.006;2023-06-22T11:43:30;32.07;;;16.00;;
4202;SDS011;2115;51.038;7.006;2023-06-22T11:45:56;31.37;;;15.73;;
4202;SDS011;2115;51.038;7.006;2023-06-22T11:48:22;29.30;;;15.37;;
4202;SDS011;2115;51.038;7.006;2023-06-22T11:50:51;28.47;;;16.33;;
4202;SDS011;2115;51.038;7.006;2023-06-22T11:53:16;41.80;;;19.23;;
4202;SDS011;2115;51.038;7.006;2023-06-22T11:55:42;29.53;;;16.43;;
4202;SDS011;2115;51.038;7.006;2023-06-22T11:58:08;31.77;;;17.53;;
4202;SDS011;2115;51.038;7.006;2023-06-22T12:00:34;30.47;;;18.50;;
4202;SDS011;2115;51.038;7.006;2023-06-22T12:02:59;26.57;;;16.50;;
4202;SDS011;2115;51.038;7.006;2023-06-22T12:05:25;27.63;;;16.60;;
4202;SDS011;2115;51.038;7.006;2023-06-22T12:07:52;28.23;;;16.10;;
4202;SDS011;2115;51.038;7.006;2023-06-22T12:10:18;25.37;;;16.53;;
4202;SDS011;2115;51.038;7.006;2023-06-22T12:12:43;25.83;;;15.97;;
4202;SDS011;2115;51.038;7.006;2023-06-22T12:15:09;34.43;;;16.20;;
4202;SDS011;2115;51.038;7.006;2023-06-22T12:17:35;26.37;;;14.37;;
4202;SDS011;2115;51.038;7.006;2023-06-22T12:20:00;17.93;;;11.20;;
4202;SDS011;2115;51.038;7.006;2023-06-22T12:22:27;19.20;;;10.40;;
4202;SDS011;2115;51.038;7.006;2023-06-22T12:24:52;16.07;;;9.13;;
4202;SDS011;2115;51.038;7.006;2023-06-22T12:27:17;16.03;;;9.37;;
4202;SDS011;2115;51.038;7.006;2023-06-22T12:29:43;12.37;;;9.60;;
4202;SDS011;2115;51.038;7.006;2023-06-22T12:32:10;15.87;;;9.43;;
4202;SDS011;2115;51.038;7.006;2023-06-22T12:34:38;14.30;;;9.10;;
4202;SDS011;2115;51.038;7.006;2023-06-22T12:37:03;14.37;;;8.77;;
4202;SDS011;2115;51.038;7.006;2023-06-22T12:39:30;16.07;;;9.70;;
4202;SDS011;2115;51.038;7.006;2023-06-22T12:41:56;15.50;;;9.40;;
4202;SDS011;2115;51.038;7.006;2023-06-22T12:44:21;11.27;;;8.27;;
4202;SDS011;2115;51.038;7.006;2023-06-22T12:46:46;13.82;;;8.68;;
4202;SDS011;2115;51.038;7.006;2023-06-22T12:49:12;11.90;;;8.18;;
4202;SDS011;2115;51.038;7.006;2023-06-22T12:51:41;13.18;;;6.85;;
4202;SDS011;2115;51.038;7.006;2023-06-22T12:54:09;12.52;;;7.68;;
4202;SDS011;2115;51.038;7.006;2023-06-22T12:56:35;11.85;;;7.43;;
4202;SDS011;2115;51.038;7.006;2023-06-22T12:59:03;11.82;;;6.30;;
4202;SDS011;2115;51.038;7.006;2023-06-22T13:01:31;10.18;;;6.65;;
4202;SDS011;2115;51.038;7.006;2023-06-22T13:03:57;10.63;;;6.05;;
4202;SDS011;2115;51.038;7.006;2023-06-22T13:06:23;12.55;;;5.95;;
4202;SDS011;2115;51.038;7.006;2023-06-22T13:08:48;9.60;;;5.35;;
4202;SDS011;2115;51.038;7.006;2023-06-22T13:11:13;12.13;;;5.80;;
4202;SDS011;2115;51.038;7.006;2023-06-22T13:13:39;12.57;;;6.07;;
4202;SDS011;2115;51.038;7.006;2023-06-22T13:16:05;10.75;;;5.30;;
4202;SDS011;2115;51.038;7.006;2023-06-22T13:18:30;10.95;;;5.00;;
4202;SDS011;2115;51.038;7.006;2023-06-22T13:20:56;7.45;;;4.60;;
4202;SDS011;2115;51.038;7.006;2023-06-22T13:23:23;8.68;;;5.75;;
4202;SDS011;2115;51.038;7.006;2023-06-22T13:25:48;9.70;;;4.80;;
4202;SDS011;2115;51.038;7.006;2023-06-22T13:28:14;15.82;;;4.88;;
4202;SDS011;2115;51.038;7.006;2023-06-22T13:30:40;8.15;;;3.83;;
4202;SDS011;2115;51.038;7.006;2023-06-22T13:33:06;7.13;;;3.60;;
4202;SDS011;2115;51.038;7.006;2023-06-22T13:35:32;4.63;;;2.90;;
4202;SDS011;2115;51.038;7.006;2023-06-22T13:37:57;11.27;;;4.65;;
4202;SDS011;2115;51.038;7.006;2023-06-22T13:40:22;13.82;;;3.97;;
4202;SDS011;2115;51.038;7.006;2023-06-22T13:42:48;8.93;;;3.58;;
4202;SDS011;2115;51.038;7.006;2023-06-22T13:45:13;10.23;;;3.70;;
4202;SDS011;2115;51.038;7.006;2023-06-22T13:47:41;4.35;;;2.95;;
4202;SDS011;2115;51.038;7.006;2023-06-22T13:50:07;11.02;;;4.28;;
4202;SDS011;2115;51.038;7.006;2023-06-22T13:52:32;29.55;;;7.28;;
4202;SDS011;2115;51.038;7.006;2023-06-22T13:54:58;23.17;;;8.05;;
4202;SDS011;2115;51.038;7.006;2023-06-22T13:57:23;13.13;;;5.05;;
4202;SDS011;2115;51.038;7.006;2023-06-22T13:59:48;13.75;;;6.47;;
4202;SDS011;2115;51.038;7.006;2023-06-22T14:02:14;17.98;;;6.60;;
4202;SDS011;2115;51.038;7.006;2023-06-22T14:04:39;7.38;;;5.43;;
4202;SDS011;2115;51.038;7.006;2023-06-22T14:07:05;8.98;;;5.45;;
4202;SDS011;2115;51.038;7.006;2023-06-22T14:09:30;11.00;;;4.22;;
4202;SDS011;2115;51.038;7.006;2023-06-22T14:11:55;16.33;;;5.25;;
4202;SDS011;2115;51.038;7.006;2023-06-22T14:14:21;7.28;;;4.22;;
4202;SDS011;2115;51.038;7.006;2023-06-22T14:16:46;9.10;;;5.00;;
4202;SDS011;2115;51.038;7.006;2023-06-22T14:19:14;11.40;;;5.53;;
4202;SDS011;2115;51.038;7.006;2023-06-22T14:21:39;12.98;;;5.43;;
4202;SDS011;2115;51.038;7.006;2023-06-22T14:24:05;4.53;;;4.07;;
4202;SDS011;2115;51.038;7.006;2023-06-22T14:26:30;9.93;;;4.68;;
4202;SDS011;2115;51.038;7.006;2023-06-22T14:28:55;11.98;;;4.30;;
4202;SDS011;2115;51.038;7.006;2023-06-22T14:31:21;14.43;;;4.65;;
4202;SDS011;2115;51.038;7.006;2023-06-22T14:33:47;14.35;;;4.93;;
4202;SDS011;2115;51.038;7.006;2023-06-22T14:36:13;18.23;;;5.13;;
4202;SDS011;2115;51.038;7.006;2023-06-22T14:38:39;5.85;;;4.10;;
4202;SDS011;2115;51.038;7.006;2023-06-22T14:41:04;10.15;;;4.30;;
4202;SDS011;2115;51.038;7.006;2023-06-22T14:43:30;15.65;;;5.13;;
4202;SDS011;2115;51.038;7.006;2023-06-22T14:45:55;5.50;;;4.10;;
4202;SDS011;2115;51.038;7.006;2023-06-22T14:48:21;19.85;;;5.50;;
4202;SDS011;2115;51.038;7.006;2023-06-22T14:50:46;7.60;;;4.50;;
4202;SDS011;2115;51.038;7.006;2023-06-22T14:53:11;24.83;;;6.53;;
4202;SDS011;2115;51.038;7.006;2023-06-22T14:55:37;7.13;;;4.43;;
4202;SDS011;2115;51.038;7.006;2023-06-22T14:58:02;21.13;;;6.07;;
4202;SDS011;2115;51.038;7.006;2023-06-22T15:00:28;10.93;;;5.00;;
4202;SDS011;2115;51.038;7.006;2023-06-22T15:02:53;9.07;;;5.60;;
4202;SDS011;2115;51.038;7.006;2023-06-22T15:05:18;15.60;;;7.40;;
4202;SDS011;2115;51.038;7.006;2023-06-22T15:07:44;13.20;;;6.27;;
4202;SDS011;2115;51.038;7.006;2023-06-22T15:10:09;47.77;;;10.67;;
4202;SDS011;2115;51.038;7.006;2023-06-22T15:12:35;27.33;;;10.20;;
4202;SDS011;2115;51.038;7.006;2023-06-22T15:15:01;27.80;;;10.40;;
4202;SDS011;2115;51.038;7.006;2023-06-22T15:17:29;28.33;;;10.00;;
4202;SDS011;2115;51.038;7.006;2023-06-22T15:19:57;27.00;;;9.87;;
4202;SDS011;2115;51.038;7.006;2023-06-22T15:22:23;26.83;;;9.57;;
4202;SDS011;2115;51.038;7.006;2023-06-22T15:24:48;21.10;;;10.47;;